createdAt,value
2018-03-25T00:02:01.920Z,0.30
2018-03-25T00:04:28.367Z,0.30
2018-03-25T00:06:54.825Z,0.20
2018-03-25T00:09:21.366Z,0.20
2018-03-25T00:11:48.640Z,0.20
2018-03-25T00:14:15.783Z,0.10
2018-03-25T00:16:42.217Z,0.10
2018-03-25T00:19:08.668Z,0.10
2018-03-25T00:21:35.065Z,0.10
2018-03-25T00:24:02.276Z,0.10
2018-03-25T00:26:28.712Z,0.10
2018-03-25T00:28:55.151Z,0.10
2018-03-25T00:31:22.378Z,0.20
2018-03-25T00:33:48.896Z,0.10
2018-03-25T00:36:16.170Z,0.10
2018-03-25T00:38:43.346Z,0.10
2018-03-25T00:41:09.733Z,0.00
2018-03-25T00:43:36.177Z,0.00
2018-03-25T00:46:02.629Z,0.00
2018-03-25T00:48:29.051Z,-0.10
2018-03-25T00:50:56.260Z,-0.10
2018-03-25T00:53:22.666Z,-0.10
2018-03-25T00:55:49.118Z,-0.10
2018-03-25T00:58:15.613Z,-0.20
2018-03-25T01:00:42.020Z,-0.20
2018-03-25T01:03:08.429Z,-0.20
2018-03-25T01:05:34.977Z,-0.20
2018-03-25T01:08:01.528Z,-0.20
2018-03-25T01:10:28.828Z,-0.10
2018-03-25T01:12:55.313Z,-0.20
2018-03-25T01:15:21.820Z,-0.10
2018-03-25T01:17:48.982Z,-0.20
2018-03-25T01:20:16.166Z,-0.20
2018-03-25T01:22:43.312Z,-0.20
2018-03-25T01:25:09.734Z,-0.20
2018-03-25T01:27:36.250Z,-0.20
2018-03-25T01:30:02.785Z,-0.20
2018-03-25T01:32:29.994Z,-0.30
2018-03-25T01:34:56.397Z,-0.30
2018-03-25T01:37:22.827Z,-0.30
2018-03-25T01:39:49.288Z,-0.30
2018-03-25T01:42:15.682Z,-0.30
2018-03-25T01:44:42.087Z,-0.30
2018-03-25T01:47:08.502Z,-0.40
2018-03-25T01:49:35.667Z,-0.40
2018-03-25T01:52:02.129Z,-0.40
2018-03-25T01:54:32.878Z,-0.40
2018-03-25T01:57:00.053Z,-0.40
2018-03-25T01:59:27.209Z,-0.50
2018-03-25T02:01:53.602Z,-0.40
2018-03-25T02:04:22.008Z,-0.50
2018-03-25T02:06:48.450Z,-0.50
2018-03-25T02:09:14.880Z,-0.50
2018-03-25T02:11:41.856Z,-0.50
2018-03-25T02:14:08.260Z,-0.50
2018-03-25T02:16:34.712Z,-0.50
2018-03-25T02:19:01.140Z,-0.50
2018-03-25T02:21:28.320Z,-0.50
2018-03-25T02:23:54.897Z,-0.50
2018-03-25T02:26:21.327Z,-0.50
2018-03-25T02:28:48.597Z,-0.50
2018-03-25T02:31:15.814Z,-0.60
2018-03-25T02:33:42.336Z,-0.60
2018-03-25T02:36:08.765Z,-0.60
2018-03-25T02:38:35.161Z,-0.60
2018-03-25T02:41:07.489Z,-0.60
2018-03-25T02:43:33.900Z,-0.60
2018-03-25T02:46:00.360Z,-0.60
2018-03-25T02:48:26.785Z,-0.60
2018-03-25T02:50:53.969Z,-0.60
2018-03-25T02:53:21.125Z,-0.60
2018-03-25T02:55:48.056Z,-0.60
2018-03-25T02:58:14.555Z,-0.60
2018-03-25T03:00:40.995Z,-0.60
2018-03-25T03:03:08.023Z,-0.60
2018-03-25T03:05:34.440Z,-0.60
2018-03-25T03:08:01.590Z,-0.60
2018-03-25T03:10:28.784Z,-0.60
2018-03-25T03:12:55.989Z,-0.50
2018-03-25T03:15:22.411Z,-0.60
2018-03-25T03:17:48.873Z,-0.50
2018-03-25T03:20:16.078Z,-0.40
2018-03-25T03:22:42.480Z,-0.40
2018-03-25T03:25:08.886Z,-0.30
2018-03-25T03:27:35.315Z,-0.30
2018-03-25T03:30:01.771Z,-0.20
2018-03-25T03:32:28.921Z,-0.20
2018-03-25T03:34:55.347Z,-0.20
2018-03-25T03:37:21.734Z,-0.20
2018-03-25T03:39:48.147Z,-0.10
2018-03-25T03:42:14.562Z,-0.10
2018-03-25T03:44:41.731Z,0.00
2018-03-25T03:47:08.879Z,0.00
2018-03-25T03:49:35.267Z,0.00
2018-03-25T03:52:02.436Z,0.10
2018-03-25T03:54:29.614Z,0.10
2018-03-25T03:56:56.038Z,0.10
2018-03-25T03:59:22.440Z,0.10
2018-03-25T04:01:48.851Z,0.10
2018-03-25T04:04:16.005Z,0.10
2018-03-25T04:06:42.443Z,0.10
2018-03-25T04:09:09.596Z,0.10
2018-03-25T04:11:36.004Z,0.10
2018-03-25T04:14:03.237Z,0.10
2018-03-25T04:16:30.401Z,0.00
2018-03-25T04:18:56.783Z,0.00
2018-03-25T04:21:23.188Z,0.00
2018-03-25T04:23:50.304Z,0.00
2018-03-25T04:26:16.708Z,0.00
2018-03-25T04:28:43.829Z,-0.10
2018-03-25T04:31:10.228Z,-0.10
2018-03-25T04:33:37.367Z,-0.10
2018-03-25T04:36:03.869Z,-0.10
2018-03-25T04:38:30.424Z,-0.10
2018-03-25T04:40:57.559Z,-0.20
2018-03-25T04:43:23.979Z,-0.20
2018-03-25T04:45:50.368Z,-0.20
2018-03-25T04:48:16.884Z,-0.20
2018-03-25T04:50:43.300Z,-0.20
2018-03-25T04:53:10.428Z,-0.10
2018-03-25T04:55:36.838Z,-0.20
2018-03-25T04:58:04.117Z,-0.10
2018-03-25T05:00:31.290Z,-0.10
2018-03-25T05:02:58.462Z,-0.10
2018-03-25T05:05:25.618Z,-0.10
2018-03-25T05:07:52.789Z,-0.10
2018-03-25T05:10:19.980Z,0.00
2018-03-25T05:12:47.127Z,0.10
2018-03-25T05:15:13.568Z,0.00
2018-03-25T05:17:40.009Z,0.10
2018-03-25T05:20:06.963Z,0.20
2018-03-25T05:22:33.993Z,0.30
2018-03-25T05:25:01.172Z,0.40
2018-03-25T05:27:28.421Z,0.50
2018-03-25T05:29:54.802Z,0.50
2018-03-25T05:32:21.937Z,0.70
2018-03-25T05:34:48.322Z,0.70
2018-03-25T05:37:15.495Z,1.00
2018-03-25T05:39:42.670Z,1.10
2018-03-25T05:42:09.842Z,1.20
2018-03-25T05:44:37.007Z,1.40
2018-03-25T05:47:04.234Z,1.70
2018-03-25T05:49:30.748Z,1.70
2018-03-25T05:51:57.241Z,2.20
2018-03-25T05:54:23.640Z,3.10
2018-03-25T05:56:50.120Z,4.20
2018-03-25T05:59:16.589Z,5.30
2018-03-25T06:01:43.017Z,6.50
2018-03-25T06:04:10.283Z,7.60
2018-03-25T06:06:37.434Z,7.70
2018-03-25T06:09:04.749Z,8.00
2018-03-25T06:11:32.023Z,8.20
2018-03-25T06:13:58.582Z,8.20
2018-03-25T06:16:25.063Z,8.20
2018-03-25T06:18:51.453Z,7.90
2018-03-25T06:21:19.384Z,8.40
2018-03-25T06:23:46.533Z,10.10
2018-03-25T06:26:12.974Z,10.00
2018-03-25T06:28:39.401Z,11.90
2018-03-25T06:31:05.763Z,13.60
2018-03-25T06:33:32.208Z,15.20
2018-03-25T06:35:58.617Z,16.40
2018-03-25T06:38:25.088Z,17.30
2018-03-25T06:40:51.533Z,17.80
2018-03-25T06:43:18.692Z,18.90
2018-03-25T06:45:45.133Z,18.90
2018-03-25T06:48:11.561Z,19.50
2018-03-25T06:50:38.982Z,19.90
2018-03-25T06:53:05.403Z,20.10
2018-03-25T06:55:31.828Z,20.50
2018-03-25T06:57:58.236Z,20.90
2018-03-25T07:00:24.729Z,21.50
2018-03-25T07:02:51.183Z,22.00
2018-03-25T07:05:18.458Z,23.20
2018-03-25T07:07:45.660Z,23.50
2018-03-25T07:10:12.151Z,23.50
2018-03-25T07:12:39.385Z,24.10
2018-03-25T07:15:05.839Z,24.10
2018-03-25T07:17:32.331Z,24.40
2018-03-25T07:19:58.738Z,24.70
2018-03-25T07:22:25.161Z,25.00
2018-03-25T07:24:53.063Z,25.80
2018-03-25T07:27:20.211Z,26.20
2018-03-25T07:29:48.243Z,26.40
2018-03-25T07:32:14.648Z,26.40
2018-03-25T07:34:41.070Z,26.40
2018-03-25T07:37:07.503Z,26.40
2018-03-25T07:39:34.658Z,26.70
2018-03-25T07:42:01.080Z,26.60
2018-03-25T07:44:27.560Z,26.60
2018-03-25T07:46:53.988Z,26.70
2018-03-25T07:49:20.404Z,26.90
2018-03-25T07:51:47.164Z,27.00
2018-03-25T07:54:13.691Z,27.20
2018-03-25T07:56:40.177Z,27.30
2018-03-25T07:59:07.453Z,27.00
2018-03-25T08:01:34.626Z,27.00
2018-03-25T08:04:01.805Z,27.30
2018-03-25T08:06:28.202Z,27.30
2018-03-25T08:08:54.618Z,27.80
2018-03-25T08:11:21.031Z,28.10
2018-03-25T08:13:47.455Z,28.20
2018-03-25T08:16:13.955Z,28.40
2018-03-25T08:18:41.151Z,28.70
2018-03-25T08:21:08.290Z,28.70
2018-03-25T08:23:34.700Z,28.70
2018-03-25T08:26:01.143Z,29.00
2018-03-25T08:28:27.570Z,29.40
2018-03-25T08:30:53.972Z,29.70
2018-03-25T08:33:20.380Z,30.10
2018-03-25T08:35:46.969Z,30.30
2018-03-25T08:38:13.413Z,30.50
2018-03-25T08:40:39.851Z,30.50
2018-03-25T08:43:06.334Z,30.60
2018-03-25T08:45:32.765Z,30.60
2018-03-25T08:47:59.304Z,30.80
2018-03-25T08:50:25.817Z,30.40
2018-03-25T08:52:52.355Z,29.30
2018-03-25T08:55:19.629Z,27.50
2018-03-25T08:57:46.832Z,26.90
2018-03-25T09:00:13.307Z,26.90
2018-03-25T09:02:39.876Z,26.00
2018-03-25T09:05:06.340Z,24.50
2018-03-25T09:07:32.934Z,22.10
2018-03-25T09:10:00.092Z,18.20
2018-03-25T09:12:27.276Z,16.70
2018-03-25T09:14:54.459Z,15.30
2018-03-25T09:17:20.890Z,15.30
2018-03-25T09:19:50.082Z,13.60
2018-03-25T09:22:16.554Z,13.50
2018-03-25T09:24:43.140Z,13.10
2018-03-25T09:27:10.414Z,12.30
2018-03-25T09:29:37.688Z,12.00
2018-03-25T09:32:04.185Z,12.00
2018-03-25T09:34:30.628Z,11.80
2018-03-25T09:36:57.041Z,11.50
2018-03-25T09:39:24.332Z,11.00
2018-03-25T09:41:50.894Z,11.00
2018-03-25T09:44:17.448Z,10.80
2018-03-25T09:46:44.789Z,10.50
2018-03-25T09:49:11.263Z,10.50
2018-03-25T09:51:39.091Z,10.40
2018-03-25T09:54:05.579Z,10.40
2018-03-25T09:56:31.994Z,10.40
2018-03-25T09:58:58.422Z,10.50
2018-03-25T10:01:46.059Z,10.50
2018-03-25T10:04:13.199Z,10.40
2018-03-25T10:06:40.261Z,10.40
2018-03-25T10:09:06.778Z,10.30
2018-03-25T10:11:33.246Z,10.20
2018-03-25T10:14:00.394Z,10.30
2018-03-25T10:16:26.858Z,10.20
2018-03-25T10:18:53.319Z,10.30
2018-03-25T10:21:19.710Z,10.40
2018-03-25T10:23:46.147Z,10.30
2018-03-25T10:26:12.567Z,10.30
2018-03-25T10:28:39.016Z,10.20
2018-03-25T10:31:06.163Z,10.00
2018-03-25T10:33:32.658Z,10.00
2018-03-25T10:35:59.108Z,10.00
2018-03-25T10:38:26.295Z,10.10
2018-03-25T10:40:52.839Z,10.10
2018-03-25T10:43:20.018Z,10.10
2018-03-25T10:45:46.465Z,10.00
2018-03-25T10:48:13.846Z,10.30
2018-03-25T10:50:41.027Z,10.30
2018-03-25T10:53:07.986Z,10.30
2018-03-25T10:55:34.443Z,10.30
2018-03-25T10:58:02.165Z,10.20
2018-03-25T11:00:28.576Z,10.20
2018-03-25T11:02:56.252Z,10.20
2018-03-25T11:05:23.539Z,10.30
2018-03-25T11:07:50.818Z,10.40
2018-03-25T11:10:17.374Z,10.30
2018-03-25T11:12:44.365Z,10.40
2018-03-25T11:15:10.814Z,10.50
2018-03-25T11:17:37.365Z,10.60
2018-03-25T11:20:03.913Z,10.70
2018-03-25T11:22:31.180Z,10.60
2018-03-25T11:24:58.345Z,10.50
2018-03-25T11:27:25.533Z,10.40
2018-03-25T11:29:52.733Z,10.30
2018-03-25T11:32:19.722Z,10.20
2018-03-25T11:34:46.184Z,10.20
2018-03-25T11:37:12.620Z,10.20
2018-03-25T11:39:39.043Z,10.40
2018-03-25T11:42:06.231Z,10.20
2018-03-25T11:44:32.770Z,10.20
2018-03-25T11:47:00.150Z,10.30
2018-03-25T11:49:26.708Z,10.30
2018-03-25T11:51:53.988Z,10.40
2018-03-25T11:54:20.540Z,10.60
2018-03-25T11:56:47.098Z,10.70
2018-03-25T11:59:13.603Z,10.60
2018-03-25T12:01:40.215Z,10.70
2018-03-25T12:04:07.474Z,10.80
2018-03-25T12:06:34.673Z,10.70
2018-03-25T12:09:01.168Z,10.70
2018-03-25T12:11:27.623Z,10.70
2018-03-25T12:13:54.134Z,10.60
2018-03-25T12:16:21.345Z,10.70
2018-03-25T12:18:48.305Z,10.70
2018-03-25T12:21:14.755Z,10.80
2018-03-25T12:23:41.182Z,10.80
2018-03-25T12:26:07.798Z,10.90
2018-03-25T12:28:34.242Z,10.90
2018-03-25T12:31:00.681Z,10.80
2018-03-25T12:33:27.104Z,10.70
2018-03-25T12:35:54.334Z,10.20
2018-03-25T12:38:20.771Z,10.20
2018-03-25T12:40:47.192Z,10.20
2018-03-25T12:43:14.353Z,10.50
2018-03-25T12:45:41.539Z,10.50
2018-03-25T12:48:08.686Z,10.60
2018-03-25T12:50:35.094Z,10.60
2018-03-25T12:53:01.570Z,10.60
2018-03-25T12:55:27.976Z,10.60
2018-03-25T12:57:55.166Z,10.50
2018-03-25T13:00:21.595Z,10.50
2018-03-25T13:02:49.623Z,10.10
2018-03-25T13:05:16.525Z,10.20
2018-03-25T13:07:42.970Z,10.20
2018-03-25T13:10:09.415Z,10.30
2018-03-25T13:12:35.879Z,10.30
2018-03-25T13:15:02.320Z,10.10
2018-03-25T13:17:28.771Z,10.10
2018-03-25T13:19:55.241Z,10.10
2018-03-25T13:22:21.715Z,10.30
2018-03-25T13:24:48.179Z,10.20
2018-03-25T13:27:14.734Z,10.20
2018-03-25T13:29:41.173Z,10.20
2018-03-25T13:32:07.616Z,10.20
2018-03-25T13:34:34.018Z,10.00
2018-03-25T13:37:00.414Z,9.90
2018-03-25T13:39:26.874Z,9.90
2018-03-25T13:41:53.384Z,9.80
2018-03-25T13:44:19.965Z,9.70
2018-03-25T13:46:47.137Z,9.70
2018-03-25T13:49:14.316Z,9.70
2018-03-25T13:51:40.739Z,9.70
2018-03-25T13:54:07.451Z,9.90
2018-03-25T13:56:34.551Z,9.70
2018-03-25T13:59:00.950Z,9.70
2018-03-25T14:01:28.121Z,9.40
2018-03-25T14:03:55.295Z,9.40
2018-03-25T14:06:22.459Z,9.20
2018-03-25T14:08:49.639Z,9.20
2018-03-25T14:11:16.807Z,9.20
2018-03-25T14:13:43.237Z,9.20
2018-03-25T14:16:09.704Z,9.20
2018-03-25T14:18:36.241Z,9.10
2018-03-25T14:21:02.678Z,9.10
2018-03-25T14:23:29.124Z,9.00
2018-03-25T14:25:55.570Z,9.00
2018-03-25T14:28:22.004Z,9.10
2018-03-25T14:30:48.617Z,9.10
2018-03-25T14:33:15.115Z,9.10
2018-03-25T14:35:42.302Z,9.10
2018-03-25T14:38:08.730Z,9.10
2018-03-25T14:40:35.172Z,9.20
2018-03-25T14:43:01.667Z,9.30
2018-03-25T14:45:28.133Z,9.30
2018-03-25T14:47:54.786Z,9.40
2018-03-25T14:50:21.811Z,9.50
2018-03-25T14:52:48.311Z,9.50
2018-03-25T14:55:15.518Z,9.50
2018-03-25T14:57:41.998Z,9.40
2018-03-25T15:00:08.563Z,9.40
2018-03-25T15:02:35.097Z,9.30
2018-03-25T15:05:01.546Z,9.30
2018-03-25T15:07:28.070Z,9.20
2018-03-25T15:09:54.606Z,9.20
2018-03-25T15:12:21.106Z,9.20
2018-03-25T15:14:48.265Z,9.20
2018-03-25T15:17:14.721Z,9.20
2018-03-25T15:19:41.276Z,9.20
2018-03-25T15:22:07.827Z,9.20
2018-03-25T15:24:34.427Z,9.20
2018-03-25T15:27:00.895Z,9.10
2018-03-25T15:29:27.362Z,9.00
2018-03-25T15:31:53.824Z,8.90
2018-03-25T15:34:20.271Z,8.80
2018-03-25T15:36:46.724Z,8.70
2018-03-25T15:39:13.183Z,8.60
2018-03-25T15:41:39.644Z,8.50
2018-03-25T15:44:06.203Z,8.50
2018-03-25T15:46:32.697Z,8.40
2018-03-25T15:48:59.870Z,8.30
2018-03-25T15:51:27.094Z,8.20
2018-03-25T15:53:53.505Z,8.20
2018-03-25T15:56:19.969Z,8.10
2018-03-25T15:58:46.514Z,8.00
2018-03-25T16:01:13.680Z,7.80
2018-03-25T16:03:40.107Z,7.70
2018-03-25T16:06:06.528Z,7.70
2018-03-25T16:08:33.009Z,7.60
2018-03-25T16:10:59.611Z,7.50
2018-03-25T16:13:26.840Z,7.40
2018-03-25T16:15:53.315Z,7.30
2018-03-25T16:18:20.305Z,7.30
2018-03-25T16:20:46.780Z,7.20
2018-03-25T16:23:13.944Z,7.20
2018-03-25T16:25:40.395Z,7.20
2018-03-25T16:28:07.614Z,7.10
2018-03-25T16:30:34.141Z,7.10
2018-03-25T16:33:00.687Z,7.10
2018-03-25T16:35:27.214Z,7.10
2018-03-25T16:37:53.807Z,6.90
2018-03-25T16:40:20.362Z,6.90
2018-03-25T16:42:46.815Z,6.80
2018-03-25T16:45:14.092Z,6.70
2018-03-25T16:47:41.866Z,6.60
2018-03-25T16:50:09.857Z,6.60
2018-03-25T16:52:37.142Z,6.50
2018-03-25T16:55:04.419Z,6.40
2018-03-25T16:57:30.851Z,6.40
2018-03-25T16:59:57.323Z,6.30
2018-03-25T17:02:24.605Z,6.20
2018-03-25T17:04:51.076Z,6.20
2018-03-25T17:07:17.618Z,6.10
2018-03-25T17:09:44.745Z,5.90
2018-03-25T17:12:11.176Z,5.80
2018-03-25T17:14:37.545Z,5.80
2018-03-25T17:17:04.125Z,5.70
2018-03-25T17:19:30.545Z,5.60
2018-03-25T17:21:57.070Z,5.50
2018-03-25T17:24:23.471Z,5.40
2018-03-25T17:26:49.897Z,5.30
2018-03-25T17:29:16.445Z,5.20
2018-03-25T17:31:45.004Z,5.10
2018-03-25T17:34:11.430Z,5.00
2018-03-25T17:36:37.892Z,4.90
2018-03-25T17:39:04.426Z,4.80
2018-03-25T17:41:30.893Z,4.70
2018-03-25T17:43:57.462Z,4.60
2018-03-25T17:46:23.954Z,4.40
2018-03-25T17:48:50.515Z,4.40
2018-03-25T17:51:16.998Z,4.30
2018-03-25T17:53:44.285Z,4.20
2018-03-25T17:56:10.684Z,4.10
2018-03-25T17:58:37.886Z,4.10
2018-03-25T18:01:04.317Z,4.00
2018-03-25T18:03:31.407Z,4.00
2018-03-25T18:05:58.315Z,4.00
2018-03-25T18:08:24.966Z,3.90
2018-03-25T18:10:51.529Z,3.90
2018-03-25T18:13:17.989Z,3.90
2018-03-25T18:15:44.840Z,3.80
2018-03-25T18:18:12.049Z,3.80
2018-03-25T18:20:39.796Z,3.70
2018-03-25T18:23:06.418Z,3.70
2018-03-25T18:25:32.900Z,3.70
2018-03-25T18:28:04.615Z,3.60
2018-03-25T18:30:31.998Z,3.60
2018-03-25T18:33:01.120Z,3.60
2018-03-25T18:35:27.586Z,3.50
2018-03-25T18:37:55.478Z,3.50
2018-03-25T18:40:22.397Z,3.50
2018-03-25T18:42:50.118Z,3.50
2018-03-25T18:45:18.118Z,3.50
2018-03-25T18:47:44.598Z,3.40
2018-03-25T18:50:11.888Z,3.40
2018-03-25T18:52:39.585Z,3.30
2018-03-25T18:55:06.855Z,3.30
2018-03-25T18:57:33.515Z,3.30
2018-03-25T19:00:00.791Z,3.20
2018-03-25T19:02:27.315Z,3.10
2018-03-25T19:04:53.864Z,3.10
2018-03-25T19:07:20.569Z,3.10
2018-03-25T19:09:48.461Z,3.00
2018-03-25T19:12:14.966Z,2.90
2018-03-25T19:14:41.371Z,2.90
2018-03-25T19:17:07.938Z,2.80
2018-03-25T19:19:34.484Z,2.80
2018-03-25T19:22:01.864Z,2.70
2018-03-25T19:24:28.422Z,2.60
2018-03-25T19:26:55.594Z,2.60
2018-03-25T19:29:22.079Z,2.60
2018-03-25T19:31:49.956Z,2.50
2018-03-25T19:34:17.616Z,2.50
2018-03-25T19:36:45.143Z,2.40
2018-03-25T19:39:11.667Z,2.40
2018-03-25T19:41:38.423Z,2.40
2018-03-25T19:44:04.978Z,2.40
2018-03-25T19:46:32.476Z,2.30
2018-03-25T19:49:00.043Z,2.30
2018-03-25T19:51:26.539Z,2.20
2018-03-25T19:53:53.161Z,2.30
2018-03-25T19:56:19.589Z,2.20
2018-03-25T19:58:46.279Z,2.20
2018-03-25T20:01:12.810Z,2.20
2018-03-25T20:03:39.314Z,2.20
2018-03-25T20:06:05.794Z,2.10
2018-03-25T20:08:32.508Z,2.10
2018-03-25T20:11:01.038Z,2.10
2018-03-25T20:13:27.563Z,2.10
2018-03-25T20:15:54.807Z,2.00
2018-03-25T20:18:21.410Z,2.00
2018-03-25T20:20:47.842Z,2.00
2018-03-25T20:23:15.006Z,2.00
2018-03-25T20:25:41.462Z,2.00
2018-03-25T20:28:09.636Z,2.00
2018-03-25T20:30:38.287Z,2.00
2018-03-25T20:33:05.462Z,2.00
2018-03-25T20:35:31.894Z,2.00
2018-03-25T20:37:58.356Z,1.90
2018-03-25T20:40:25.519Z,2.00
2018-03-25T20:42:52.717Z,2.00
2018-03-25T20:45:19.655Z,2.00
2018-03-25T20:47:46.119Z,2.10
2018-03-25T20:50:12.560Z,2.10
2018-03-25T20:52:39.020Z,2.20
2018-03-25T20:55:05.528Z,2.30
2018-03-25T20:57:31.996Z,2.40
2018-03-25T20:59:58.434Z,2.40
2018-03-25T21:02:24.814Z,2.50
2018-03-25T21:04:51.282Z,2.50
2018-03-25T21:07:17.703Z,2.50
2018-03-25T21:09:44.162Z,2.60
2018-03-25T21:12:10.702Z,2.50
2018-03-25T21:14:37.874Z,2.50
2018-03-25T21:17:05.200Z,2.50
2018-03-25T21:19:31.641Z,2.50
2018-03-25T21:21:58.135Z,2.50
2018-03-25T21:24:24.572Z,2.50
2018-03-25T21:26:51.000Z,2.50
2018-03-25T21:29:17.533Z,2.50
2018-03-25T21:31:44.765Z,2.40
2018-03-25T21:34:11.207Z,2.40
2018-03-25T21:36:37.722Z,2.40
2018-03-25T21:39:04.898Z,2.40
2018-03-25T21:41:31.375Z,2.40
2018-03-25T21:43:57.791Z,2.40
2018-03-25T21:46:24.982Z,2.40
2018-03-25T21:48:51.428Z,2.40
2018-03-25T21:51:18.582Z,2.30
2018-03-25T21:53:45.007Z,2.30
2018-03-25T21:56:11.456Z,2.30
2018-03-25T21:58:37.879Z,2.30
2018-03-25T22:01:04.392Z,2.30
2018-03-25T22:03:30.899Z,2.20
2018-03-25T22:05:57.344Z,2.20
2018-03-25T22:08:24.516Z,2.20
2018-03-25T22:10:51.789Z,2.20
2018-03-25T22:13:18.971Z,2.20
2018-03-25T22:15:45.395Z,2.20
2018-03-25T22:18:11.813Z,2.20
2018-03-25T22:20:38.229Z,2.20
2018-03-25T22:23:05.403Z,2.20
2018-03-25T22:25:31.851Z,2.20
2018-03-25T22:27:59.055Z,2.10
2018-03-25T22:30:25.463Z,2.10
2018-03-25T22:32:52.656Z,2.00
2018-03-25T22:35:19.802Z,2.00
2018-03-25T22:37:46.996Z,2.00
2018-03-25T22:40:14.173Z,1.90
2018-03-25T22:42:41.316Z,1.90
2018-03-25T22:45:07.742Z,1.90
2018-03-25T22:47:34.149Z,1.90
2018-03-25T22:50:01.324Z,1.70
2018-03-25T22:52:28.489Z,1.70
2018-03-25T22:54:55.608Z,1.70
2018-03-25T22:57:23.086Z,1.70
2018-03-25T22:59:49.512Z,1.70
2018-03-25T23:02:16.063Z,1.70
2018-03-25T23:04:43.338Z,1.70
2018-03-25T23:07:10.505Z,1.60
2018-03-25T23:09:37.633Z,1.70
2018-03-25T23:12:04.133Z,1.70
2018-03-25T23:14:31.294Z,1.70
2018-03-25T23:16:58.438Z,1.80
2018-03-25T23:19:24.882Z,1.80
2018-03-25T23:21:51.292Z,1.80
2018-03-25T23:24:18.444Z,1.90
2018-03-25T23:26:44.849Z,1.90
2018-03-25T23:29:11.301Z,2.00
2018-03-25T23:31:37.702Z,2.10
2018-03-25T23:34:04.133Z,2.20
2018-03-25T23:36:30.531Z,2.20
2018-03-25T23:38:57.819Z,2.30
2018-03-25T23:41:24.273Z,2.30
2018-03-25T23:43:51.593Z,2.40
2018-03-25T23:46:18.110Z,2.40
2018-03-25T23:48:44.535Z,2.60
2018-03-25T23:51:10.955Z,2.60
2018-03-25T23:53:37.477Z,2.60
2018-03-25T23:56:04.629Z,2.70
2018-03-25T23:58:31.035Z,2.70
